Andrews AFB, Maryland
Current Conditions -  °F | °C
As of 12:58 AM on Wednesday 22 Oct 2014 (Local Time) from KADW Reporting Station
Overcast Overcast  
Wind Chill: 53°   Ceiling: 5000
Heat Index: 53°   Visibility: 10mi
Dew Point: 51°   Wind: 10mph
Humidity: 95%   Direction: 340°NNW
Pressure: 29.87"   Gusts: NA
Location:  38.8°N, 76.87°W
Report Text: KADW 220458Z AUTO 34009KT 10SM OVC050 12/11 A2987 RMK AO2 RAE0416DZB0416E0422 SLP121 P0001 T01160108 402080089 $
Loading
Personal Weather Stations






























Interactive Weather Map New forecast layout! Learn more

10-Day Weather Forecast

Advertisements
Track Severe Weather on mobile